sensor_id;sensor_type;location;lat;lon;timestamp;P1;durP1;ratioP1;P2;durP2;ratioP2
26211;SDS011;13951;49.516;6.094;2023-05-19T00:00:45;4.10;;;1.87;;
26211;SDS011;13951;49.516;6.094;2023-05-19T00:03:22;2.00;;;1.73;;
26211;SDS011;13951;49.516;6.094;2023-05-19T00:05:56;2.63;;;1.70;;
26211;SDS011;13951;49.516;6.094;2023-05-19T00:08:31;1.60;;;1.50;;
26211;SDS011;13951;49.516;6.094;2023-05-19T00:11:05;2.33;;;1.70;;
26211;SDS011;13951;49.516;6.094;2023-05-19T00:13:39;2.17;;;1.63;;
26211;SDS011;13951;49.516;6.094;2023-05-19T00:16:12;3.17;;;1.67;;
26211;SDS011;13951;49.516;6.094;2023-05-19T00:18:46;2.87;;;1.80;;
26211;SDS011;13951;49.516;6.094;2023-05-19T00:21:20;3.20;;;1.63;;
26211;SDS011;13951;49.516;6.094;2023-05-19T00:23:53;3.10;;;1.97;;
26211;SDS011;13951;49.516;6.094;2023-05-19T00:26:26;4.90;;;2.07;;
26211;SDS011;13951;49.516;6.094;2023-05-19T00:29:06;2.17;;;1.60;;
26211;SDS011;13951;49.516;6.094;2023-05-19T00:31:38;5.83;;;1.87;;
26211;SDS011;13951;49.516;6.094;2023-05-19T00:34:13;4.63;;;1.60;;
26211;SDS011;13951;49.516;6.094;2023-05-19T00:36:46;2.60;;;1.50;;
26211;SDS011;13951;49.516;6.094;2023-05-19T00:39:20;6.37;;;2.10;;
26211;SDS011;13951;49.516;6.094;2023-05-19T00:41:52;2.13;;;1.80;;
26211;SDS011;13951;49.516;6.094;2023-05-19T00:44:26;2.47;;;1.80;;
26211;SDS011;13951;49.516;6.094;2023-05-19T00:46:58;3.60;;;2.20;;
26211;SDS011;13951;49.516;6.094;2023-05-19T00:49:32;3.50;;;2.10;;
26211;SDS011;13951;49.516;6.094;2023-05-19T00:52:05;2.50;;;1.93;;
26211;SDS011;13951;49.516;6.094;2023-05-19T00:54:39;3.60;;;1.87;;
26211;SDS011;13951;49.516;6.094;2023-05-19T00:57:12;4.03;;;1.70;;
26211;SDS011;13951;49.516;6.094;2023-05-19T00:59:49;5.65;;;2.20;;
26211;SDS011;13951;49.516;6.094;2023-05-19T01:02:22;3.97;;;2.00;;
26211;SDS011;13951;49.516;6.094;2023-05-19T01:04:55;2.90;;;1.80;;
26211;SDS011;13951;49.516;6.094;2023-05-19T01:07:29;2.10;;;1.90;;
26211;SDS011;13951;49.516;6.094;2023-05-19T01:10:02;4.43;;;1.97;;
26211;SDS011;13951;49.516;6.094;2023-05-19T01:12:36;4.37;;;2.07;;
26211;SDS011;13951;49.516;6.094;2023-05-19T01:15:09;2.80;;;1.87;;
26211;SDS011;13951;49.516;6.094;2023-05-19T01:17:45;3.70;;;2.20;;
26211;SDS011;13951;49.516;6.094;2023-05-19T01:20:27;3.57;;;2.20;;
26211;SDS011;13951;49.516;6.094;2023-05-19T01:23:34;1.83;;;1.60;;
26211;SDS011;13951;49.516;6.094;2023-05-19T01:26:41;3.83;;;1.57;;
26211;SDS011;13951;49.516;6.094;2023-05-19T01:29:50;4.13;;;1.90;;
26211;SDS011;13951;49.516;6.094;2023-05-19T01:32:43;3.10;;;1.67;;
26211;SDS011;13951;49.516;6.094;2023-05-19T01:35:18;3.13;;;1.83;;
26211;SDS011;13951;49.516;6.094;2023-05-19T01:37:56;2.10;;;1.90;;
26211;SDS011;13951;49.516;6.094;2023-05-19T01:40:30;1.80;;;1.60;;
26211;SDS011;13951;49.516;6.094;2023-05-19T01:43:05;2.47;;;2.00;;
26211;SDS011;13951;49.516;6.094;2023-05-19T01:45:40;3.53;;;1.90;;
26211;SDS011;13951;49.516;6.094;2023-05-19T01:48:13;4.23;;;2.17;;
26211;SDS011;13951;49.516;6.094;2023-05-19T01:50:47;4.27;;;2.03;;
26211;SDS011;13951;49.516;6.094;2023-05-19T01:53:20;2.83;;;1.97;;
26211;SDS011;13951;49.516;6.094;2023-05-19T01:55:54;5.43;;;2.00;;
26211;SDS011;13951;49.516;6.094;2023-05-19T01:58:43;3.85;;;2.33;;
26211;SDS011;13951;49.516;6.094;2023-05-19T02:01:32;2.27;;;1.80;;
26211;SDS011;13951;49.516;6.094;2023-05-19T02:04:32;3.10;;;1.80;;
26211;SDS011;13951;49.516;6.094;2023-05-19T02:07:16;5.53;;;1.97;;
26211;SDS011;13951;49.516;6.094;2023-05-19T02:10:05;2.80;;;1.93;;
26211;SDS011;13951;49.516;6.094;2023-05-19T02:12:43;4.03;;;2.00;;
26211;SDS011;13951;49.516;6.094;2023-05-19T02:15:21;3.57;;;1.87;;
26211;SDS011;13951;49.516;6.094;2023-05-19T02:17:58;3.40;;;2.00;;
26211;SDS011;13951;49.516;6.094;2023-05-19T02:20:35;2.83;;;1.87;;
26211;SDS011;13951;49.516;6.094;2023-05-19T02:23:11;2.27;;;1.90;;
26211;SDS011;13951;49.516;6.094;2023-05-19T02:25:44;3.20;;;2.07;;
26211;SDS011;13951;49.516;6.094;2023-05-19T02:28:17;1.80;;;1.63;;
26211;SDS011;13951;49.516;6.094;2023-05-19T02:30:50;2.70;;;1.87;;
26211;SDS011;13951;49.516;6.094;2023-05-19T02:33:23;2.30;;;1.97;;
26211;SDS011;13951;49.516;6.094;2023-05-19T02:35:59;3.57;;;2.20;;
26211;SDS011;13951;49.516;6.094;2023-05-19T02:38:33;5.33;;;2.20;;
26211;SDS011;13951;49.516;6.094;2023-05-19T02:41:06;2.33;;;1.90;;
26211;SDS011;13951;49.516;6.094;2023-05-19T02:43:39;4.67;;;2.37;;
26211;SDS011;13951;49.516;6.094;2023-05-19T02:46:12;4.67;;;2.07;;
26211;SDS011;13951;49.516;6.094;2023-05-19T02:48:46;2.93;;;2.17;;
26211;SDS011;13951;49.516;6.094;2023-05-19T02:51:19;4.93;;;2.00;;
26211;SDS011;13951;49.516;6.094;2023-05-19T02:53:51;6.47;;;2.10;;
26211;SDS011;13951;49.516;6.094;2023-05-19T02:56:25;3.67;;;2.50;;
26211;SDS011;13951;49.516;6.094;2023-05-19T02:58:59;2.60;;;2.17;;
26211;SDS011;13951;49.516;6.094;2023-05-19T03:01:33;4.23;;;2.00;;
26211;SDS011;13951;49.516;6.094;2023-05-19T03:04:05;4.47;;;1.90;;
26211;SDS011;13951;49.516;6.094;2023-05-19T03:06:39;5.50;;;2.20;;
26211;SDS011;13951;49.516;6.094;2023-05-19T03:09:13;4.60;;;1.90;;
26211;SDS011;13951;49.516;6.094;2023-05-19T03:11:46;3.40;;;2.00;;
26211;SDS011;13951;49.516;6.094;2023-05-19T03:14:19;3.63;;;2.10;;
26211;SDS011;13951;49.516;6.094;2023-05-19T03:16:55;2.20;;;2.03;;
26211;SDS011;13951;49.516;6.094;2023-05-19T03:19:28;4.87;;;2.10;;
26211;SDS011;13951;49.516;6.094;2023-05-19T03:22:03;4.60;;;2.00;;
26211;SDS011;13951;49.516;6.094;2023-05-19T03:24:38;2.40;;;1.97;;
26211;SDS011;13951;49.516;6.094;2023-05-19T03:27:11;3.27;;;2.33;;
26211;SDS011;13951;49.516;6.094;2023-05-19T03:29:44;2.20;;;2.00;;
26211;SDS011;13951;49.516;6.094;2023-05-19T03:32:18;4.97;;;2.07;;
26211;SDS011;13951;49.516;6.094;2023-05-19T03:34:52;4.30;;;2.00;;
26211;SDS011;13951;49.516;6.094;2023-05-19T03:37:25;2.67;;;2.10;;
26211;SDS011;13951;49.516;6.094;2023-05-19T03:39:58;4.10;;;1.90;;
26211;SDS011;13951;49.516;6.094;2023-05-19T03:42:31;4.97;;;1.83;;
26211;SDS011;13951;49.516;6.094;2023-05-19T03:45:05;3.47;;;2.20;;
26211;SDS011;13951;49.516;6.094;2023-05-19T03:47:39;3.47;;;2.17;;
26211;SDS011;13951;49.516;6.094;2023-05-19T03:50:44;4.13;;;2.30;;
26211;SDS011;13951;49.516;6.094;2023-05-19T03:53:24;4.13;;;2.30;;
26211;SDS011;13951;49.516;6.094;2023-05-19T03:55:57;3.43;;;2.43;;
26211;SDS011;13951;49.516;6.094;2023-05-19T03:58:33;2.07;;;1.87;;
26211;SDS011;13951;49.516;6.094;2023-05-19T04:01:09;3.73;;;2.50;;
26211;SDS011;13951;49.516;6.094;2023-05-19T04:03:42;5.73;;;2.47;;
26211;SDS011;13951;49.516;6.094;2023-05-19T04:06:18;2.47;;;2.23;;
26211;SDS011;13951;49.516;6.094;2023-05-19T04:08:52;4.43;;;2.60;;
26211;SDS011;13951;49.516;6.094;2023-05-19T04:11:24;2.50;;;2.17;;
26211;SDS011;13951;49.516;6.094;2023-05-19T04:13:57;4.07;;;2.20;;
26211;SDS011;13951;49.516;6.094;2023-05-19T04:16:31;6.07;;;2.97;;
26211;SDS011;13951;49.516;6.094;2023-05-19T04:19:04;4.60;;;2.03;;
26211;SDS011;13951;49.516;6.094;2023-05-19T04:21:39;6.43;;;2.40;;
26211;SDS011;13951;49.516;6.094;2023-05-19T04:24:12;5.27;;;2.40;;
26211;SDS011;13951;49.516;6.094;2023-05-19T04:26:46;3.87;;;2.17;;
26211;SDS011;13951;49.516;6.094;2023-05-19T04:29:21;5.10;;;2.17;;
26211;SDS011;13951;49.516;6.094;2023-05-19T04:31:55;3.87;;;2.50;;
26211;SDS011;13951;49.516;6.094;2023-05-19T04:34:33;3.53;;;2.10;;
26211;SDS011;13951;49.516;6.094;2023-05-19T04:37:08;4.80;;;2.40;;
26211;SDS011;13951;49.516;6.094;2023-05-19T04:39:43;6.37;;;2.70;;
26211;SDS011;13951;49.516;6.094;2023-05-19T04:42:18;4.83;;;2.60;;
26211;SDS011;13951;49.516;6.094;2023-05-19T04:44:52;5.77;;;2.57;;
26211;SDS011;13951;49.516;6.094;2023-05-19T04:47:28;4.77;;;3.23;;
26211;SDS011;13951;49.516;6.094;2023-05-19T04:50:03;4.83;;;2.80;;
26211;SDS011;13951;49.516;6.094;2023-05-19T04:52:36;5.20;;;2.83;;
26211;SDS011;13951;49.516;6.094;2023-05-19T04:55:10;5.93;;;2.60;;
26211;SDS011;13951;49.516;6.094;2023-05-19T04:57:45;5.38;;;3.13;;
26211;SDS011;13951;49.516;6.094;2023-05-19T05:00:19;3.90;;;3.00;;
26211;SDS011;13951;49.516;6.094;2023-05-19T05:03:00;4.00;;;2.33;;
26211;SDS011;13951;49.516;6.094;2023-05-19T05:05:37;3.33;;;2.40;;
26211;SDS011;13951;49.516;6.094;2023-05-19T05:08:10;3.27;;;2.50;;
26211;SDS011;13951;49.516;6.094;2023-05-19T05:10:47;3.10;;;2.20;;
26211;SDS011;13951;49.516;6.094;2023-05-19T05:13:25;6.37;;;2.23;;
26211;SDS011;13951;49.516;6.094;2023-05-19T05:16:03;2.57;;;1.90;;
26211;SDS011;13951;49.516;6.094;2023-05-19T05:18:38;5.20;;;2.77;;
26211;SDS011;13951;49.516;6.094;2023-05-19T05:21:15;4.53;;;2.20;;
26211;SDS011;13951;49.516;6.094;2023-05-19T05:23:49;2.90;;;2.30;;
26211;SDS011;13951;49.516;6.094;2023-05-19T05:26:24;3.33;;;2.17;;
26211;SDS011;13951;49.516;6.094;2023-05-19T05:29:02;3.33;;;2.37;;
26211;SDS011;13951;49.516;6.094;2023-05-19T05:31:35;3.20;;;2.27;;
26211;SDS011;13951;49.516;6.094;2023-05-19T05:34:09;4.50;;;2.50;;
26211;SDS011;13951;49.516;6.094;2023-05-19T05:36:42;4.40;;;2.57;;
26211;SDS011;13951;49.516;6.094;2023-05-19T05:39:15;4.30;;;2.23;;
26211;SDS011;13951;49.516;6.094;2023-05-19T05:41:49;6.13;;;2.47;;
26211;SDS011;13951;49.516;6.094;2023-05-19T05:44:24;3.03;;;2.37;;
26211;SDS011;13951;49.516;6.094;2023-05-19T05:46:58;3.23;;;2.23;;
26211;SDS011;13951;49.516;6.094;2023-05-19T05:49:31;2.77;;;1.77;;
26211;SDS011;13951;49.516;6.094;2023-05-19T05:52:04;3.67;;;2.30;;
26211;SDS011;13951;49.516;6.094;2023-05-19T05:54:45;4.67;;;2.00;;
26211;SDS011;13951;49.516;6.094;2023-05-19T05:57:21;2.77;;;2.10;;
26211;SDS011;13951;49.516;6.094;2023-05-19T05:59:54;4.17;;;1.90;;
26211;SDS011;13951;49.516;6.094;2023-05-19T06:02:28;1.87;;;1.50;;
26211;SDS011;13951;49.516;6.094;2023-05-19T06:05:02;3.67;;;1.50;;
26211;SDS011;13951;49.516;6.094;2023-05-19T06:07:37;1.33;;;1.20;;
26211;SDS011;13951;49.516;6.094;2023-05-19T06:10:11;2.87;;;1.30;;
26211;SDS011;13951;49.516;6.094;2023-05-19T06:12:44;2.20;;;1.30;;
26211;SDS011;13951;49.516;6.094;2023-05-19T06:15:17;6.47;;;1.30;;
26211;SDS011;13951;49.516;6.094;2023-05-19T06:17:55;5.73;;;1.50;;
26211;SDS011;13951;49.516;6.094;2023-05-19T06:20:27;5.37;;;1.40;;
26211;SDS011;13951;49.516;6.094;2023-05-19T06:23:02;1.93;;;1.00;;
26211;SDS011;13951;49.516;6.094;2023-05-19T06:25:35;1.47;;;1.10;;
26211;SDS011;13951;49.516;6.094;2023-05-19T06:28:08;2.17;;;1.30;;
26211;SDS011;13951;49.516;6.094;2023-05-19T06:30:41;2.50;;;1.30;;
26211;SDS011;13951;49.516;6.094;2023-05-19T06:33:30;2.13;;;1.37;;
26211;SDS011;13951;49.516;6.094;2023-05-19T06:36:03;2.00;;;1.13;;
26211;SDS011;13951;49.516;6.094;2023-05-19T06:38:37;2.63;;;1.27;;
26211;SDS011;13951;49.516;6.094;2023-05-19T06:41:11;4.17;;;1.47;;
26211;SDS011;13951;49.516;6.094;2023-05-19T06:43:45;2.23;;;1.47;;
26211;SDS011;13951;49.516;6.094;2023-05-19T06:46:18;1.30;;;1.00;;
26211;SDS011;13951;49.516;6.094;2023-05-19T06:48:51;2.03;;;1.20;;
26211;SDS011;13951;49.516;6.094;2023-05-19T06:51:28;2.90;;;1.10;;
26211;SDS011;13951;49.516;6.094;2023-05-19T06:54:01;2.57;;;1.10;;
26211;SDS011;13951;49.516;6.094;2023-05-19T06:56:34;2.57;;;1.17;;
26211;SDS011;13951;49.516;6.094;2023-05-19T06:59:08;3.97;;;1.48;;
26211;SDS011;13951;49.516;6.094;2023-05-19T07:01:42;2.90;;;1.20;;
26211;SDS011;13951;49.516;6.094;2023-05-19T07:04:15;2.00;;;1.20;;
26211;SDS011;13951;49.516;6.094;2023-05-19T07:06:48;4.30;;;1.07;;
26211;SDS011;13951;49.516;6.094;2023-05-19T07:09:22;3.50;;;1.20;;
26211;SDS011;13951;49.516;6.094;2023-05-19T07:11:56;3.37;;;1.27;;
26211;SDS011;13951;49.516;6.094;2023-05-19T07:14:29;3.50;;;1.07;;
26211;SDS011;13951;49.516;6.094;2023-05-19T07:17:04;2.77;;;1.13;;
26211;SDS011;13951;49.516;6.094;2023-05-19T07:19:37;1.90;;;1.07;;
26211;SDS011;13951;49.516;6.094;2023-05-19T07:22:10;5.00;;;1.23;;
26211;SDS011;13951;49.516;6.094;2023-05-19T07:24:43;2.60;;;1.10;;
26211;SDS011;13951;49.516;6.094;2023-05-19T07:27:17;2.40;;;1.23;;
26211;SDS011;13951;49.516;6.094;2023-05-19T07:29:50;2.80;;;1.10;;
26211;SDS011;13951;49.516;6.094;2023-05-19T07:32:23;3.83;;;1.35;;
26211;SDS011;13951;49.516;6.094;2023-05-19T07:34:56;4.03;;;1.60;;
26211;SDS011;13951;49.516;6.094;2023-05-19T07:37:29;2.90;;;1.20;;
26211;SDS011;13951;49.516;6.094;2023-05-19T07:40:03;4.05;;;1.30;;
26211;SDS011;13951;49.516;6.094;2023-05-19T07:42:38;3.00;;;1.10;;
26211;SDS011;13951;49.516;6.094;2023-05-19T07:45:11;3.35;;;1.50;;
26211;SDS011;13951;49.516;6.094;2023-05-19T07:47:44;3.40;;;1.40;;
26211;SDS011;13951;49.516;6.094;2023-05-19T07:50:17;2.30;;;1.42;;
26211;SDS011;13951;49.516;6.094;2023-05-19T07:52:50;2.70;;;1.30;;
26211;SDS011;13951;49.516;6.094;2023-05-19T07:55:23;3.13;;;1.20;;
26211;SDS011;13951;49.516;6.094;2023-05-19T07:57:56;1.90;;;1.10;;
26211;SDS011;13951;49.516;6.094;2023-05-19T08:00:29;2.22;;;1.00;;
26211;SDS011;13951;49.516;6.094;2023-05-19T08:03:02;2.60;;;1.48;;
26211;SDS011;13951;49.516;6.094;2023-05-19T08:05:36;2.42;;;1.10;;
26211;SDS011;13951;49.516;6.094;2023-05-19T08:08:09;1.50;;;1.08;;
26211;SDS011;13951;49.516;6.094;2023-05-19T08:10:43;2.08;;;1.25;;
26211;SDS011;13951;49.516;6.094;2023-05-19T08:13:17;6.95;;;1.35;;
26211;SDS011;13951;49.516;6.094;2023-05-19T08:15:50;1.98;;;0.98;;
26211;SDS011;13951;49.516;6.094;2023-05-19T08:18:23;3.35;;;1.27;;
26211;SDS011;13951;49.516;6.094;2023-05-19T08:20:59;2.38;;;1.13;;
26211;SDS011;13951;49.516;6.094;2023-05-19T08:23:32;4.80;;;1.00;;
26211;SDS011;13951;49.516;6.094;2023-05-19T08:26:05;1.60;;;1.15;;
26211;SDS011;13951;49.516;6.094;2023-05-19T08:28:38;1.48;;;0.85;;
26211;SDS011;13951;49.516;6.094;2023-05-19T08:31:12;2.10;;;1.00;;
26211;SDS011;13951;49.516;6.094;2023-05-19T08:33:45;3.80;;;1.08;;
26211;SDS011;13951;49.516;6.094;2023-05-19T08:36:18;2.75;;;1.23;;
26211;SDS011;13951;49.516;6.094;2023-05-19T08:38:53;2.97;;;1.15;;
26211;SDS011;13951;49.516;6.094;2023-05-19T08:41:26;3.58;;;1.15;;
26211;SDS011;13951;49.516;6.094;2023-05-19T08:43:59;2.38;;;1.50;;
26211;SDS011;13951;49.516;6.094;2023-05-19T08:46:32;4.88;;;1.60;;
26211;SDS011;13951;49.516;6.094;2023-05-19T08:49:25;3.85;;;1.45;;
26211;SDS011;13951;49.516;6.094;2023-05-19T08:52:11;2.72;;;1.60;;
26211;SDS011;13951;49.516;6.094;2023-05-19T08:54:52;2.85;;;1.35;;
26211;SDS011;13951;49.516;6.094;2023-05-19T08:57:27;3.22;;;1.30;;
26211;SDS011;13951;49.516;6.094;2023-05-19T09:00:01;2.97;;;1.20;;
26211;SDS011;13951;49.516;6.094;2023-05-19T09:02:40;1.70;;;1.30;;
26211;SDS011;13951;49.516;6.094;2023-05-19T09:05:32;1.92;;;1.15;;
26211;SDS011;13951;49.516;6.094;2023-05-19T09:08:06;2.00;;;1.33;;
26211;SDS011;13951;49.516;6.094;2023-05-19T09:10:39;2.53;;;1.10;;
26211;SDS011;13951;49.516;6.094;2023-05-19T09:13:12;1.58;;;1.17;;
26211;SDS011;13951;49.516;6.094;2023-05-19T09:15:45;4.43;;;1.20;;
26211;SDS011;13951;49.516;6.094;2023-05-19T09:18:19;2.72;;;1.38;;
26211;SDS011;13951;49.516;6.094;2023-05-19T09:20:59;2.63;;;1.60;;
26211;SDS011;13951;49.516;6.094;2023-05-19T09:23:34;2.03;;;1.23;;
26211;SDS011;13951;49.516;6.094;2023-05-19T09:26:07;5.43;;;1.30;;
26211;SDS011;13951;49.516;6.094;2023-05-19T09:28:41;2.67;;;1.10;;
26211;SDS011;13951;49.516;6.094;2023-05-19T09:31:15;4.10;;;1.73;;
26211;SDS011;13951;49.516;6.094;2023-05-19T09:33:49;2.97;;;1.45;;
26211;SDS011;13951;49.516;6.094;2023-05-19T09:36:25;2.25;;;1.05;;
26211;SDS011;13951;49.516;6.094;2023-05-19T09:39:01;2.65;;;1.42;;
26211;SDS011;13951;49.516;6.094;2023-05-19T09:41:44;3.17;;;1.20;;
26211;SDS011;13951;49.516;6.094;2023-05-19T09:44:24;2.28;;;1.13;;
26211;SDS011;13951;49.516;6.094;2023-05-19T09:47:02;1.63;;;1.27;;
26211;SDS011;13951;49.516;6.094;2023-05-19T09:49:34;2.72;;;1.10;;
26211;SDS011;13951;49.516;6.094;2023-05-19T09:52:07;2.90;;;1.10;;
26211;SDS011;13951;49.516;6.094;2023-05-19T09:54:43;5.38;;;1.13;;
26211;SDS011;13951;49.516;6.094;2023-05-19T09:57:16;3.42;;;1.45;;
26211;SDS011;13951;49.516;6.094;2023-05-19T09:59:49;3.78;;;1.30;;
26211;SDS011;13951;49.516;6.094;2023-05-19T10:02:22;3.20;;;1.40;;
26211;SDS011;13951;49.516;6.094;2023-05-19T10:04:57;2.42;;;1.38;;
26211;SDS011;13951;49.516;6.094;2023-05-19T10:07:30;2.30;;;1.10;;
26211;SDS011;13951;49.516;6.094;2023-05-19T10:10:04;2.70;;;1.10;;
26211;SDS011;13951;49.516;6.094;2023-05-19T10:12:40;3.22;;;1.17;;
26211;SDS011;13951;49.516;6.094;2023-05-19T10:15:15;2.60;;;1.20;;
26211;SDS011;13951;49.516;6.094;2023-05-19T10:17:48;3.03;;;1.20;;
26211;SDS011;13951;49.516;6.094;2023-05-19T10:20:22;2.00;;;1.20;;
26211;SDS011;13951;49.516;6.094;2023-05-19T10:22:57;1.90;;;1.13;;
26211;SDS011;13951;49.516;6.094;2023-05-19T10:25:31;4.97;;;1.50;;
26211;SDS011;13951;49.516;6.094;2023-05-19T10:28:07;2.53;;;1.05;;
26211;SDS011;13951;49.516;6.094;2023-05-19T10:30:46;1.90;;;1.20;;
26211;SDS011;13951;49.516;6.094;2023-05-19T10:33:26;1.65;;;1.00;;
26211;SDS011;13951;49.516;6.094;2023-05-19T10:39:15;2.38;;;1.50;;
26211;SDS011;13951;49.516;6.094;2023-05-19T10:41:58;4.13;;;2.30;;
26211;SDS011;13951;49.516;6.094;2023-05-19T10:45:06;3.63;;;1.35;;
26211;SDS011;13951;49.516;6.094;2023-05-19T10:47:49;3.08;;;1.20;;
26211;SDS011;13951;49.516;6.094;2023-05-19T10:50:23;1.92;;;1.10;;
26211;SDS011;13951;49.516;6.094;2023-05-19T10:52:56;1.65;;;1.20;;
26211;SDS011;13951;49.516;6.094;2023-05-19T10:55:44;2.55;;;1.23;;
26211;SDS011;13951;49.516;6.094;2023-05-19T10:58:36;11.82;;;6.03;;
26211;SDS011;13951;49.516;6.094;2023-05-19T11:01:16;2.33;;;1.27;;
26211;SDS011;13951;49.516;6.094;2023-05-19T11:03:52;5.07;;;1.40;;
26211;SDS011;13951;49.516;6.094;2023-05-19T11:06:29;3.17;;;1.95;;
26211;SDS011;13951;49.516;6.094;2023-05-19T11:11:47;2.20;;;1.20;;
26211;SDS011;13951;49.516;6.094;2023-05-19T11:14:27;4.75;;;2.00;;
26211;SDS011;13951;49.516;6.094;2023-05-19T11:17:00;2.53;;;1.10;;
26211;SDS011;13951;49.516;6.094;2023-05-19T11:19:33;2.45;;;1.10;;
26211;SDS011;13951;49.516;6.094;2023-05-19T11:22:08;3.15;;;1.20;;
26211;SDS011;13951;49.516;6.094;2023-05-19T11:24:45;1.25;;;0.98;;
26211;SDS011;13951;49.516;6.094;2023-05-19T11:27:30;3.05;;;1.42;;
26211;SDS011;13951;49.516;6.094;2023-05-19T11:30:09;2.42;;;1.48;;
26211;SDS011;13951;49.516;6.094;2023-05-19T11:32:46;1.25;;;1.00;;
26211;SDS011;13951;49.516;6.094;2023-05-19T11:35:19;2.50;;;1.30;;
26211;SDS011;13951;49.516;6.094;2023-05-19T11:37:53;2.13;;;0.98;;
26211;SDS011;13951;49.516;6.094;2023-05-19T11:40:28;2.38;;;1.30;;
26211;SDS011;13951;49.516;6.094;2023-05-19T11:43:01;1.98;;;0.98;;
26211;SDS011;13951;49.516;6.094;2023-05-19T11:45:35;2.70;;;2.00;;
26211;SDS011;13951;49.516;6.094;2023-05-19T11:48:11;2.25;;;1.33;;
26211;SDS011;13951;49.516;6.094;2023-05-19T11:50:45;2.55;;;1.40;;
26211;SDS011;13951;49.516;6.094;2023-05-19T11:53:18;3.20;;;1.33;;
26211;SDS011;13951;49.516;6.094;2023-05-19T11:55:52;1.73;;;1.10;;
26211;SDS011;13951;49.516;6.094;2023-05-19T11:58:25;3.80;;;1.60;;
26211;SDS011;13951;49.516;6.094;2023-05-19T12:01:02;2.42;;;1.10;;
26211;SDS011;13951;49.516;6.094;2023-05-19T12:03:35;1.45;;;1.00;;
26211;SDS011;13951;49.516;6.094;2023-05-19T12:06:09;1.63;;;1.10;;
26211;SDS011;13951;49.516;6.094;2023-05-19T12:08:42;3.13;;;1.10;;
26211;SDS011;13951;49.516;6.094;2023-05-19T12:11:15;1.80;;;0.95;;
26211;SDS011;13951;49.516;6.094;2023-05-19T12:13:51;2.73;;;1.10;;
26211;SDS011;13951;49.516;6.094;2023-05-19T12:16:33;1.60;;;1.20;;
26211;SDS011;13951;49.516;6.094;2023-05-19T12:19:07;2.40;;;1.17;;
26211;SDS011;13951;49.516;6.094;2023-05-19T12:21:41;2.35;;;1.27;;
26211;SDS011;13951;49.516;6.094;2023-05-19T12:24:14;2.67;;;1.10;;
26211;SDS011;13951;49.516;6.094;2023-05-19T12:26:47;5.13;;;1.10;;
26211;SDS011;13951;49.516;6.094;2023-05-19T12:29:23;3.38;;;1.15;;
26211;SDS011;13951;49.516;6.094;2023-05-19T12:32:00;1.85;;;1.13;;
26211;SDS011;13951;49.516;6.094;2023-05-19T12:34:35;1.33;;;1.10;;
26211;SDS011;13951;49.516;6.094;2023-05-19T12:37:09;1.60;;;0.90;;
26211;SDS011;13951;49.516;6.094;2023-05-19T12:39:42;2.47;;;0.98;;
26211;SDS011;13951;49.516;6.094;2023-05-19T12:42:15;3.00;;;1.10;;
26211;SDS011;13951;49.516;6.094;2023-05-19T12:44:50;3.72;;;1.10;;
26211;SDS011;13951;49.516;6.094;2023-05-19T12:47:33;1.33;;;0.90;;
26211;SDS011;13951;49.516;6.094;2023-05-19T12:50:08;1.40;;;0.98;;
26211;SDS011;13951;49.516;6.094;2023-05-19T12:52:44;3.97;;;1.42;;
26211;SDS011;13951;49.516;6.094;2023-05-19T12:55:19;2.00;;;1.15;;
26211;SDS011;13951;49.516;6.094;2023-05-19T12:57:53;2.83;;;1.13;;
26211;SDS011;13951;49.516;6.094;2023-05-19T13:00:28;3.13;;;1.10;;
26211;SDS011;13951;49.516;6.094;2023-05-19T13:03:07;3.08;;;1.00;;
26211;SDS011;13951;49.516;6.094;2023-05-19T13:05:48;1.10;;;1.00;;
26211;SDS011;13951;49.516;6.094;2023-05-19T13:08:22;1.35;;;1.00;;
26211;SDS011;13951;49.516;6.094;2023-05-19T13:10:56;3.78;;;1.00;;
26211;SDS011;13951;49.516;6.094;2023-05-19T13:13:28;1.53;;;1.00;;
26211;SDS011;13951;49.516;6.094;2023-05-19T13:16:01;2.10;;;1.10;;
26211;SDS011;13951;49.516;6.094;2023-05-19T13:18:34;2.97;;;1.25;;
26211;SDS011;13951;49.516;6.094;2023-05-19T13:21:08;3.80;;;1.20;;
26211;SDS011;13951;49.516;6.094;2023-05-19T13:23:41;1.50;;;1.05;;
26211;SDS011;13951;49.516;6.094;2023-05-19T13:26:14;4.70;;;1.20;;
26211;SDS011;13951;49.516;6.094;2023-05-19T13:28:47;2.55;;;1.20;;
26211;SDS011;13951;49.516;6.094;2023-05-19T13:31:20;1.92;;;1.30;;
26211;SDS011;13951;49.516;6.094;2023-05-19T13:33:53;2.05;;;1.10;;
26211;SDS011;13951;49.516;6.094;2023-05-19T13:36:26;2.40;;;1.10;;
26211;SDS011;13951;49.516;6.094;2023-05-19T13:38:59;2.03;;;1.30;;
26211;SDS011;13951;49.516;6.094;2023-05-19T13:41:32;4.47;;;1.15;;
26211;SDS011;13951;49.516;6.094;2023-05-19T13:44:06;2.65;;;1.35;;
26211;SDS011;13951;49.516;6.094;2023-05-19T13:46:39;1.25;;;1.00;;
26211;SDS011;13951;49.516;6.094;2023-05-19T13:49:18;4.10;;;1.20;;
26211;SDS011;13951;49.516;6.094;2023-05-19T13:51:52;3.10;;;1.15;;
26211;SDS011;13951;49.516;6.094;2023-05-19T13:54:28;1.90;;;1.20;;
26211;SDS011;13951;49.516;6.094;2023-05-19T13:57:01;1.65;;;1.40;;
26211;SDS011;13951;49.516;6.094;2023-05-19T13:59:34;4.97;;;1.20;;
26211;SDS011;13951;49.516;6.094;2023-05-19T14:02:24;1.88;;;1.33;;
26211;SDS011;13951;49.516;6.094;2023-05-19T14:04:57;1.88;;;1.35;;
26211;SDS011;13951;49.516;6.094;2023-05-19T14:07:30;1.33;;;1.00;;
26211;SDS011;13951;49.516;6.094;2023-05-19T14:10:07;1.98;;;1.17;;
26211;SDS011;13951;49.516;6.094;2023-05-19T14:12:40;2.25;;;1.08;;
26211;SDS011;13951;49.516;6.094;2023-05-19T14:15:33;1.55;;;1.00;;
26211;SDS011;13951;49.516;6.094;2023-05-19T14:18:09;4.90;;;1.10;;
26211;SDS011;13951;49.516;6.094;2023-05-19T14:20:42;1.40;;;1.00;;
26211;SDS011;13951;49.516;6.094;2023-05-19T14:23:15;1.35;;;0.98;;
26211;SDS011;13951;49.516;6.094;2023-05-19T14:25:48;2.13;;;1.02;;
26211;SDS011;13951;49.516;6.094;2023-05-19T14:28:21;3.10;;;1.30;;
26211;SDS011;13951;49.516;6.094;2023-05-19T14:30:55;1.83;;;1.02;;
26211;SDS011;13951;49.516;6.094;2023-05-19T14:33:28;2.78;;;1.27;;
26211;SDS011;13951;49.516;6.094;2023-05-19T14:36:07;2.17;;;1.13;;
26211;SDS011;13951;49.516;6.094;2023-05-19T14:38:40;2.38;;;1.20;;
26211;SDS011;13951;49.516;6.094;2023-05-19T14:41:13;1.48;;;1.00;;
26211;SDS011;13951;49.516;6.094;2023-05-19T14:43:46;1.90;;;0.90;;
26211;SDS011;13951;49.516;6.094;2023-05-19T14:46:20;3.17;;;1.13;;
26211;SDS011;13951;49.516;6.094;2023-05-19T14:48:53;2.13;;;1.05;;
26211;SDS011;13951;49.516;6.094;2023-05-19T14:51:26;2.17;;;1.33;;
26211;SDS011;13951;49.516;6.094;2023-05-19T14:53:59;1.67;;;1.05;;
26211;SDS011;13951;49.516;6.094;2023-05-19T14:56:33;2.15;;;1.13;;
26211;SDS011;13951;49.516;6.094;2023-05-19T14:59:06;2.65;;;1.02;;
26211;SDS011;13951;49.516;6.094;2023-05-19T15:01:39;1.67;;;1.20;;
26211;SDS011;13951;49.516;6.094;2023-05-19T15:04:12;1.85;;;1.13;;
26211;SDS011;13951;49.516;6.094;2023-05-19T15:06:45;2.58;;;1.30;;
26211;SDS011;13951;49.516;6.094;2023-05-19T15:09:29;1.80;;;1.00;;
26211;SDS011;13951;49.516;6.094;2023-05-19T15:12:03;2.97;;;1.00;;
26211;SDS011;13951;49.516;6.094;2023-05-19T15:14:36;2.78;;;1.05;;
26211;SDS011;13951;49.516;6.094;2023-05-19T15:17:09;1.48;;;1.20;;
26211;SDS011;13951;49.516;6.094;2023-05-19T15:19:42;5.15;;;1.20;;
26211;SDS011;13951;49.516;6.094;2023-05-19T15:22:15;2.42;;;1.20;;
26211;SDS011;13951;49.516;6.094;2023-05-19T15:24:48;2.35;;;1.10;;
26211;SDS011;13951;49.516;6.094;2023-05-19T15:27:21;2.00;;;0.80;;
26211;SDS011;13951;49.516;6.094;2023-05-19T15:29:56;2.28;;;1.00;;
26211;SDS011;13951;49.516;6.094;2023-05-19T15:32:30;3.30;;;1.13;;
26211;SDS011;13951;49.516;6.094;2023-05-19T15:35:03;3.43;;;1.20;;
26211;SDS011;13951;49.516;6.094;2023-05-19T15:37:36;2.00;;;1.20;;
26211;SDS011;13951;49.516;6.094;2023-05-19T15:40:09;1.35;;;1.00;;
26211;SDS011;13951;49.516;6.094;2023-05-19T15:42:42;1.63;;;1.02;;